KCCR/CCR METAR and TAF weather

Enter ICAO airport designator
Station Type Date Time Source
KCCR METAR 2021/09/28 16:53 UTC NOAA

KCCR 281653Z 31008KT 10SM CLR 19/06 A3008 RMK AO2 SLP172 T01890061


Station Type Date Time Source
KCCR Decoded METAR 2021/09/28 16:53 UTC NOAA

CONCORD BUCHANAN FIELD, CA, United States (KCCR) 38-00N 122-03W 11M
Sep 28, 2021 - 12:53 PM EDT / 2021.09.28 1653 UTC
Wind: from the NW (310 degrees) at 9 MPH (8 KT):0
Visibility: 10 mile(s):0
Sky conditions: clear
Temperature: 66.0 F (18.9 C)
Dew Point: 43.0 F (6.1 C)
Relative Humidity: 43%
Pressure (altimeter): 30.08 in. Hg (1018 hPa)
ob: KCCR 281653Z 31008KT 10SM CLR 19/06 A3008 RMK AO2 SLP172 T01890061
cycle: 17

Station Type Date Time Source
KCCR TAF 2016/02/08 18:39 UTC NOAA

TAF KCCR 081738Z 0818/0918 07006KT P6SM SKC
FM082000 06010KT P6SM SKC
FM090000 06005KT P6SM SKC
FM090600 VRB03KT P6SM SKC

Example: see airport list